Time,TemperatureF,DewpointF,PressureIn,WindDirection,WindDirectionDegrees,WindSpeedMPH,WindSpeedGustMPH,Humidity,HourlyPrecipIn,Conditions,Clouds,dailyrainin,SoftwareType,DateUTC
2013-02-13 00:00:00,27.0,9.8,29.29,North,0,0.0,0.0,48,0.00,,,0.00,WUHU216HW,2013-02-13 05:00:00,
2013-02-13 00:01:00,27.0,9.8,29.29,North,0,0.0,0.0,48,0.00,,,0.00,WUHU216HW,2013-02-13 05:01:00,
2013-02-13 00:06:00,27.0,8.8,29.29,North,0,0.0,0.0,46,0.00,,,0.00,WUHU216HW,2013-02-13 05:06:00,
2013-02-13 00:11:00,27.0,9.4,29.28,North,0,0.0,0.0,47,0.00,,,0.00,WUHU216HW,2013-02-13 05:11:00,
2013-02-13 00:16:00,27.0,7.4,29.28,North,0,0.0,0.0,43,0.00,,,0.00,WUHU216HW,2013-02-13 05:16:00,
2013-02-13 00:21:00,27.0,8.4,29.28,North,0,0.0,0.0,45,0.00,,,0.00,WUHU216HW,2013-02-13 05:21:00,
2013-02-13 00:26:00,27.0,8.4,29.28,North,0,0.0,0.0,45,0.00,,,0.00,WUHU216HW,2013-02-13 05:26:00,
2013-02-13 00:31:00,27.0,7.8,29.28,North,0,0.0,0.0,44,0.00,,,0.00,WUHU216HW,2013-02-13 05:31:00,
2013-02-13 00:37:00,27.2,4.8,29.27,North,0,0.0,0.0,38,0.00,,,0.00,WUHU216HW,2013-02-13 05:37:00,
2013-02-13 00:42:00,27.2,7.0,29.27,North,0,0.0,0.0,42,0.00,,,0.00,WUHU216HW,2013-02-13 05:42:00,
2013-02-13 00:47:00,27.0,6.8,29.27,North,0,0.0,0.0,42,0.00,,,0.00,WUHU216HW,2013-02-13 05:47:00,
2013-02-13 00:52:00,27.0,6.8,29.27,North,0,0.0,0.0,42,0.00,,,0.00,WUHU216HW,2013-02-13 05:52:00,
2013-02-13 00:57:00,27.5,-4.9,29.27,North,0,0.0,0.0,24,0.00,,,0.00,WUHU216HW,2013-02-13 05:57:00,
2013-02-13 01:02:00,27.4,1.8,29.27,North,0,0.0,0.0,33,0.00,,,0.00,WUHU216HW,2013-02-13 06:02:00,
2013-02-13 01:07:00,27.9,-19.9,29.27,North,0,0.0,0.0,11,0.00,,,0.00,WUHU216HW,2013-02-13 06:07:00,
2013-02-13 01:12:00,28.3,-6.2,29.27,North,0,0.0,0.0,22,0.00,,,0.00,WUHU216HW,2013-02-13 06:12:00,
2013-02-13 01:17:00,28.4,-21.2,29.26,North,0,0.0,0.0,1,0.00,,,0.00,WUHU216HW,2013-02-13 06:17:00,
2013-02-13 01:22:00,28.6,-21.0,29.27,North,0,0.0,0.0,1,0.00,,,0.00,WUHU216HW,2013-02-13 06:22:00,
2013-02-13 01:27:00,28.6,-21.0,29.26,North,0,0.0,0.0,1,0.00,,,0.00,WUHU216HW,2013-02-13 06:27:00,
2013-02-13 01:32:00,28.6,-21.0,29.26,North,0,0.0,0.0,1,0.00,,,0.00,WUHU216HW,2013-02-13 06:32:00,
2013-02-13 01:38:00,28.8,-21.0,29.26,North,0,0.0,0.0,1,0.00,,,0.00,WUHU216HW,2013-02-13 06:38:00,
2013-02-13 01:43:00,28.6,-21.0,29.26,North,0,0.0,0.0,2,0.00,,,0.00,WUHU216HW,2013-02-13 06:43:00,
2013-02-13 01:48:00,28.8,-21.0,29.26,North,0,0.0,0.0,2,0.00,,,0.00,WUHU216HW,2013-02-13 06:48:00,
2013-02-13 01:53:00,28.8,-21.0,29.26,North,0,0.0,0.0,2,0.00,,,0.00,WUHU216HW,2013-02-13 06:53:00,
2013-02-13 01:58:00,28.6,-21.0,29.26,North,0,0.0,0.0,2,0.00,,,0.00,WUHU216HW,2013-02-13 06:58:00,
2013-02-13 02:03:00,28.6,-21.0,29.26,North,0,0.0,0.0,6,0.00,,,0.00,WUHU216HW,2013-02-13 07:03:00,
2013-02-13 02:08:00,28.4,-21.2,29.27,North,0,0.0,0.0,7,0.00,,,0.00,WUHU216HW,2013-02-13 07:08:00,
2013-02-13 02:13:00,28.4,-19.9,29.27,North,0,0.0,0.0,11,0.00,,,0.00,WUHU216HW,2013-02-13 07:13:00,
2013-02-13 02:18:00,28.4,-21.2,29.27,North,0,0.0,0.0,8,0.00,,,0.00,WUHU216HW,2013-02-13 07:18:00,
2013-02-13 02:23:00,28.4,-21.2,29.26,North,0,0.0,0.0,9,0.00,,,0.00,WUHU216HW,2013-02-13 07:23:00,
2013-02-13 02:28:00,28.6,-21.0,29.27,North,0,0.0,0.0,4,0.00,,,0.00,WUHU216HW,2013-02-13 07:28:00,
2013-02-13 02:33:00,28.6,-21.0,29.26,North,0,0.0,0.0,2,0.00,,,0.00,WUHU216HW,2013-02-13 07:33:00,
2013-02-13 02:38:00,28.6,-21.0,29.26,North,0,0.0,0.0,4,0.00,,,0.00,WUHU216HW,2013-02-13 07:38:00,
2013-02-13 02:44:00,28.8,-21.0,29.26,North,0,0.0,0.0,1,0.00,,,0.00,WUHU216HW,2013-02-13 07:44:00,
2013-02-13 02:49:00,28.8,-21.0,29.26,North,0,0.0,0.0,2,0.00,,,0.00,WUHU216HW,2013-02-13 07:49:00,
2013-02-13 02:54:00,28.8,-21.0,29.26,North,0,0.0,0.0,2,0.00,,,0.00,WUHU216HW,2013-02-13 07:54:00,
2013-02-13 02:59:00,28.8,-21.0,29.26,North,0,0.0,0.0,5,0.00,,,0.00,WUHU216HW,2013-02-13 07:59:00,
2013-02-13 03:04:00,28.8,-21.0,29.26,North,0,0.0,0.0,10,0.00,,,0.00,WUHU216HW,2013-02-13 08:04:00,
2013-02-13 03:09:00,28.8,-21.0,29.26,North,0,0.0,0.0,6,0.00,,,0.00,WUHU216HW,2013-02-13 08:09:00,
2013-02-13 03:14:00,29.0,-20.8,29.26,North,0,0.0,0.0,4,0.00,,,0.00,WUHU216HW,2013-02-13 08:14:00,
2013-02-13 03:19:00,29.0,-20.8,29.26,North,0,0.0,0.0,2,0.00,,,0.00,WUHU216HW,2013-02-13 08:19:00,
2013-02-13 03:24:00,29.0,-20.8,29.26,North,0,0.0,0.0,5,0.00,,,0.00,WUHU216HW,2013-02-13 08:24:00,
2013-02-13 03:29:00,29.0,-20.8,29.26,North,0,0.0,0.0,5,0.00,,,0.00,WUHU216HW,2013-02-13 08:29:00,
2013-02-13 03:34:00,29.2,-20.7,29.25,North,0,0.0,0.0,5,0.00,,,0.00,WUHU216HW,2013-02-13 08:34:00,
2013-02-13 03:39:00,29.2,-20.7,29.25,North,0,0.0,0.0,5,0.00,,,0.00,WUHU216HW,2013-02-13 08:39:00,
2013-02-13 03:44:00,29.2,-20.7,29.25,North,0,0.0,0.0,9,0.00,,,0.00,WUHU216HW,2013-02-13 08:44:00,
2013-02-13 03:49:00,29.2,-20.7,29.24,North,0,0.0,0.0,10,0.00,,,0.00,WUHU216HW,2013-02-13 08:49:00,
2013-02-13 03:55:00,29.2,-17.9,29.24,North,0,0.0,0.0,12,0.00,,,0.00,WUHU216HW,2013-02-13 08:55:00,
2013-02-13 04:00:00,29.2,-13.9,29.24,North,0,0.0,0.0,15,0.00,,,0.00,WUHU216HW,2013-02-13 09:00:00,
2013-02-13 04:05:00,29.0,-9.9,29.24,North,0,0.0,0.0,18,0.00,,,0.00,WUHU216HW,2013-02-13 09:05:00,
2013-02-13 04:10:00,29.0,-8.4,29.24,North,0,0.0,0.0,19,0.00,,,0.00,WUHU216HW,2013-02-13 09:10:00,
2013-02-13 04:15:00,28.8,-7.3,29.24,North,0,0.0,0.0,20,0.00,,,0.00,WUHU216HW,2013-02-13 09:15:00,
2013-02-13 04:20:00,28.6,-7.4,29.24,North,0,0.0,0.0,20,0.00,,,0.00,WUHU216HW,2013-02-13 09:20:00,
2013-02-13 04:25:00,28.6,-10.2,29.24,North,0,0.0,0.0,18,0.00,,,0.00,WUHU216HW,2013-02-13 09:25:00,
2013-02-13 04:30:00,28.6,-11.5,29.23,North,0,0.0,0.0,17,0.00,,,0.00,WUHU216HW,2013-02-13 09:30:00,
2013-02-13 04:35:00,28.8,-12.8,29.23,North,0,0.0,0.0,16,0.00,,,0.00,WUHU216HW,2013-02-13 09:35:00,
2013-02-13 04:41:00,28.8,-11.3,29.23,North,0,0.0,0.0,17,0.00,,,0.00,WUHU216HW,2013-02-13 09:41:00,
2013-02-13 04:46:00,28.8,-10.0,29.23,North,0,0.0,0.0,18,0.00,,,0.00,WUHU216HW,2013-02-13 09:46:00,
2013-02-13 04:51:00,28.8,-12.8,29.23,North,0,0.0,0.0,16,0.00,,,0.00,WUHU216HW,2013-02-13 09:51:00,
2013-02-13 04:56:00,29.0,-13.9,29.22,North,0,0.0,0.0,15,0.00,,,0.00,WUHU216HW,2013-02-13 09:56:00,
2013-02-13 05:01:00,29.0,-12.6,29.22,North,0,0.0,0.0,16,0.00,,,0.00,WUHU216HW,2013-02-13 10:01:00,
2013-02-13 05:06:00,29.0,-13.9,29.22,North,0,0.0,0.0,15,0.00,,,0.00,WUHU216HW,2013-02-13 10:06:00,
2013-02-13 05:11:00,29.0,-11.2,29.21,North,0,0.0,0.0,17,0.00,,,0.00,WUHU216HW,2013-02-13 10:11:00,
2013-02-13 05:16:00,29.0,-9.9,29.21,North,0,0.0,0.0,18,0.00,,,0.00,WUHU216HW,2013-02-13 10:16:00,
2013-02-13 05:21:00,29.0,-12.6,29.21,North,0,0.0,0.0,16,0.00,,,0.00,WUHU216HW,2013-02-13 10:21:00,
2013-02-13 05:26:00,29.0,-12.6,29.21,North,0,0.0,0.0,16,0.00,,,0.00,WUHU216HW,2013-02-13 10:26:00,
2013-02-13 05:32:00,29.0,-11.2,29.20,North,0,0.0,0.0,17,0.00,,,0.00,WUHU216HW,2013-02-13 10:32:00,
2013-02-13 05:37:00,29.0,-6.3,29.21,North,0,0.0,0.0,21,0.00,,,0.00,WUHU216HW,2013-02-13 10:37:00,
2013-02-13 05:42:00,29.0,-6.3,29.20,North,0,0.0,0.0,21,0.00,,,0.00,WUHU216HW,2013-02-13 10:42:00,
2013-02-13 05:47:00,29.0,-7.1,29.21,North,0,0.0,0.0,20,0.00,,,0.00,WUHU216HW,2013-02-13 10:47:00,
2013-02-13 05:52:00,29.0,-7.1,29.20,North,0,0.0,0.0,20,0.00,,,0.00,WUHU216HW,2013-02-13 10:52:00,
2013-02-13 05:57:00,29.0,-8.4,29.20,North,0,0.0,0.0,19,0.00,,,0.00,WUHU216HW,2013-02-13 10:57:00,
2013-02-13 06:02:00,29.0,-7.1,29.20,North,0,0.0,0.0,20,0.00,,,0.00,WUHU216HW,2013-02-13 11:02:00,
2013-02-13 06:07:00,29.0,-6.3,29.19,North,0,0.0,0.0,21,0.00,,,0.00,WUHU216HW,2013-02-13 11:07:00,
2013-02-13 06:12:00,29.0,-4.6,29.19,North,0,0.0,0.0,23,0.00,,,0.00,WUHU216HW,2013-02-13 11:12:00,
2013-02-13 06:18:00,29.0,-5.4,29.19,North,0,0.0,0.0,22,0.00,,,0.00,WUHU216HW,2013-02-13 11:18:00,
2013-02-13 06:23:00,29.0,-4.6,29.19,North,0,0.0,0.0,23,0.00,,,0.00,WUHU216HW,2013-02-13 11:23:00,
2013-02-13 06:28:00,29.0,-4.6,29.19,North,0,0.0,0.0,23,0.00,,,0.00,WUHU216HW,2013-02-13 11:28:00,
2013-02-13 06:33:00,29.0,-4.6,29.19,North,0,0.0,0.0,23,0.00,,,0.00,WUHU216HW,2013-02-13 11:33:00,
2013-02-13 06:38:00,29.0,-4.6,29.18,North,0,0.0,0.0,23,0.00,,,0.00,WUHU216HW,2013-02-13 11:38:00,
2013-02-13 06:43:00,29.0,-6.3,29.18,North,0,0.0,0.0,21,0.00,,,0.00,WUHU216HW,2013-02-13 11:43:00,
2013-02-13 06:48:00,28.8,-5.6,29.18,North,0,0.0,0.0,22,0.00,,,0.00,WUHU216HW,2013-02-13 11:48:00,
2013-02-13 06:53:00,28.8,-6.4,29.18,North,0,0.0,0.0,21,0.00,,,0.00,WUHU216HW,2013-02-13 11:53:00,
2013-02-13 06:59:00,28.8,-6.4,29.18,North,0,0.0,0.0,21,0.00,,,0.00,WUHU216HW,2013-02-13 11:59:00,
2013-02-13 07:04:00,28.8,-7.3,29.18,North,0,0.0,0.0,20,0.00,,,0.00,WUHU216HW,2013-02-13 12:04:00,
2013-02-13 07:09:00,28.8,-7.3,29.17,North,0,0.0,0.0,20,0.00,,,0.00,WUHU216HW,2013-02-13 12:09:00,
2013-02-13 07:14:00,28.8,-8.6,29.17,North,0,0.0,0.0,19,0.00,,,0.00,WUHU216HW,2013-02-13 12:14:00,
2013-02-13 07:19:00,28.8,-7.3,29.17,North,0,0.0,0.0,20,0.00,,,0.00,WUHU216HW,2013-02-13 12:19:00,
2013-02-13 07:24:00,28.8,-6.4,29.18,North,0,0.0,0.0,21,0.00,,,0.00,WUHU216HW,2013-02-13 12:24:00,
2013-02-13 07:29:00,28.8,-7.3,29.17,North,0,0.0,0.0,20,0.00,,,0.00,WUHU216HW,2013-02-13 12:29:00,
2013-02-13 07:34:00,28.8,-8.6,29.17,North,0,0.0,0.0,19,0.00,,,0.00,WUHU216HW,2013-02-13 12:34:00,
2013-02-13 07:39:00,28.8,-7.3,29.17,North,0,0.0,0.0,20,0.00,,,0.00,WUHU216HW,2013-02-13 12:39:00,
2013-02-13 07:45:00,28.8,-7.3,29.18,North,0,0.0,0.0,20,0.00,,,0.00,WUHU216HW,2013-02-13 12:45:00,
2013-02-13 07:50:00,28.8,-7.3,29.18,North,0,0.0,0.0,20,0.00,,,0.00,WUHU216HW,2013-02-13 12:50:00,
2013-02-13 07:55:00,28.8,-6.4,29.18,North,0,0.0,0.0,21,0.00,,,0.00,WUHU216HW,2013-02-13 12:55:00,
2013-02-13 08:00:00,28.8,-6.4,29.19,North,0,0.0,0.0,21,0.00,,,0.00,WUHU216HW,2013-02-13 13:00:00,
2013-02-13 08:05:00,29.0,-7.1,29.19,North,0,0.0,0.0,20,0.00,,,0.00,WUHU216HW,2013-02-13 13:05:00,
2013-02-13 08:10:00,29.0,-6.3,29.19,North,0,0.0,0.0,21,0.00,,,0.00,WUHU216HW,2013-02-13 13:10:00,
2013-02-13 08:15:00,29.2,-4.4,29.19,North,0,0.0,0.0,23,0.00,,,0.00,WUHU216HW,2013-02-13 13:15:00,
2013-02-13 08:20:00,29.2,-4.4,29.20,North,0,0.0,0.0,23,0.00,,,0.00,WUHU216HW,2013-02-13 13:20:00,
2013-02-13 08:25:00,29.2,-3.6,29.20,North,0,0.0,0.0,24,0.00,,,0.00,WUHU216HW,2013-02-13 13:25:00,
2013-02-13 08:30:00,29.3,-3.4,29.20,North,0,0.0,0.0,24,0.00,,,0.00,WUHU216HW,2013-02-13 13:30:00,
2013-02-13 08:35:00,29.3,-0.9,29.20,North,0,0.0,0.0,27,0.00,,,0.00,WUHU216HW,2013-02-13 13:35:00,
2013-02-13 08:41:00,29.5,0.2,29.20,North,0,0.0,0.0,28,0.00,,,0.00,WUHU216HW,2013-02-13 13:41:00,
2013-02-13 08:46:00,29.5,1.9,29.20,North,0,0.0,0.0,30,0.00,,,0.00,WUHU216HW,2013-02-13 13:46:00,
2013-02-13 08:51:00,29.7,2.1,29.20,North,0,0.0,0.0,30,0.00,,,0.00,WUHU216HW,2013-02-13 13:51:00,
2013-02-13 08:56:00,29.9,1.4,29.21,North,0,0.0,0.0,29,0.00,,,0.00,WUHU216HW,2013-02-13 13:56:00,
2013-02-13 09:01:00,29.9,2.8,29.21,North,0,0.0,0.0,31,0.00,,,0.00,WUHU216HW,2013-02-13 14:01:00,
2013-02-13 09:06:00,30.2,3.2,29.21,North,0,0.0,0.0,31,0.00,,,0.00,WUHU216HW,2013-02-13 14:06:00,
2013-02-13 09:11:00,30.2,5.7,29.20,North,0,0.0,0.0,35,0.00,,,0.00,WUHU216HW,2013-02-13 14:11:00,
2013-02-13 09:16:00,30.1,6.8,29.21,North,0,0.0,0.0,37,0.00,,,0.00,WUHU216HW,2013-02-13 14:16:00,
2013-02-13 09:22:00,30.2,6.9,29.20,North,0,0.0,0.0,37,0.00,,,0.00,WUHU216HW,2013-02-13 14:22:00,
2013-02-13 09:27:00,30.2,6.9,29.21,North,0,0.0,0.0,37,0.00,,,0.00,WUHU216HW,2013-02-13 14:27:00,
2013-02-13 09:32:00,30.4,7.1,29.21,North,0,0.0,0.0,37,0.00,,,0.00,WUHU216HW,2013-02-13 14:32:00,
2013-02-13 09:37:00,30.6,7.9,29.21,North,0,0.0,0.0,38,0.00,,,0.00,WUHU216HW,2013-02-13 14:37:00,
2013-02-13 09:42:00,30.6,7.3,29.21,North,0,0.0,0.0,37,0.00,,,0.00,WUHU216HW,2013-02-13 14:42:00,
2013-02-13 09:47:00,30.8,8.6,29.21,North,0,0.0,0.0,39,0.00,,,0.00,WUHU216HW,2013-02-13 14:47:00,
2013-02-13 09:52:00,31.0,9.5,29.21,North,0,0.0,0.0,40,0.00,,,0.00,WUHU216HW,2013-02-13 14:52:00,
2013-02-13 09:57:00,31.1,11.2,29.20,North,0,0.0,0.0,43,0.00,,,0.00,WUHU216HW,2013-02-13 14:57:00,
2013-02-13 10:02:00,31.0,11.0,29.20,North,0,0.0,0.0,43,0.00,,,0.00,WUHU216HW,2013-02-13 15:02:00,
2013-02-13 10:08:00,31.1,10.2,29.20,North,0,0.0,0.0,41,0.00,,,0.00,WUHU216HW,2013-02-13 15:08:00,
2013-02-13 10:13:00,31.3,10.8,29.20,North,0,0.0,0.0,42,0.00,,,0.00,WUHU216HW,2013-02-13 15:13:00,
2013-02-13 10:18:00,31.5,10.4,29.20,North,0,0.0,0.0,41,0.00,,,0.00,WUHU216HW,2013-02-13 15:18:00,
2013-02-13 10:23:00,31.9,11.3,29.21,North,0,0.0,0.0,42,0.00,,,0.00,WUHU216HW,2013-02-13 15:23:00,
2013-02-13 10:28:00,31.9,14.3,29.21,North,0,0.0,0.0,48,0.00,,,0.00,WUHU216HW,2013-02-13 15:28:00,
2013-02-13 10:33:00,32.0,14.0,29.21,North,0,0.0,0.0,47,0.00,,,0.00,WUHU216HW,2013-02-13 15:33:00,
2013-02-13 10:38:00,32.2,17.8,29.21,North,0,0.0,0.0,55,0.00,,,0.00,WUHU216HW,2013-02-13 15:38:00,
2013-02-13 10:43:00,32.0,16.4,29.21,North,0,0.0,0.0,52,0.00,,,0.00,WUHU216HW,2013-02-13 15:43:00,
2013-02-13 10:48:00,32.6,14.9,29.21,North,0,0.0,0.0,48,0.00,,,0.00,WUHU216HW,2013-02-13 15:48:00,
2013-02-13 10:53:00,33.3,16.7,29.21,North,0,0.0,0.0,50,0.00,,,0.00,WUHU216HW,2013-02-13 15:53:00,
2013-02-13 10:59:00,33.3,17.9,29.21,North,0,0.0,0.0,53,0.00,,,0.00,WUHU216HW,2013-02-13 15:59:00,
2013-02-13 11:04:00,33.5,19.4,29.21,North,0,0.0,0.0,56,0.00,,,0.00,WUHU216HW,2013-02-13 16:04:00,
2013-02-13 11:09:00,33.7,19.1,29.20,North,0,0.0,0.0,55,0.00,,,0.00,WUHU216HW,2013-02-13 16:09:00,
2013-02-13 11:14:00,33.5,19.8,29.20,North,0,0.0,0.0,57,0.00,,,0.00,WUHU216HW,2013-02-13 16:14:00,
2013-02-13 11:19:00,33.7,19.5,29.20,North,0,0.0,0.0,56,0.00,,,0.00,WUHU216HW,2013-02-13 16:19:00,
2013-02-13 11:24:00,34.6,20.0,29.20,North,0,0.0,0.0,55,0.00,,,0.00,WUHU216HW,2013-02-13 16:24:00,
2013-02-13 11:29:00,35.1,20.5,29.20,North,0,0.0,0.0,55,0.00,,,0.00,WUHU216HW,2013-02-13 16:29:00,
2013-02-13 11:34:00,35.5,21.3,29.20,North,0,0.0,0.0,56,0.00,,,0.00,WUHU216HW,2013-02-13 16:34:00,
2013-02-13 11:39:00,35.6,24.3,29.20,North,0,0.0,0.0,63,0.00,,,0.00,WUHU216HW,2013-02-13 16:39:00,
2013-02-13 11:44:00,34.9,22.9,29.20,North,0,0.0,0.0,61,0.00,,,0.00,WUHU216HW,2013-02-13 16:44:00,
2013-02-13 11:49:00,34.7,22.7,29.20,North,0,0.0,0.0,61,0.00,,,0.00,WUHU216HW,2013-02-13 16:49:00,
2013-02-13 11:55:00,35.3,23.2,29.20,North,0,0.0,0.0,61,0.00,,,0.00,WUHU216HW,2013-02-13 16:55:00,
2013-02-13 12:00:00,35.8,24.1,29.19,North,0,0.0,0.0,62,0.00,,,0.00,WUHU216HW,2013-02-13 17:00:00,
2013-02-13 12:05:00,35.5,23.8,29.19,North,0,0.0,0.0,62,0.00,,,0.00,WUHU216HW,2013-02-13 17:05:00,
2013-02-13 12:10:00,36.0,24.0,29.19,North,0,0.0,0.0,61,0.00,,,0.00,WUHU216HW,2013-02-13 17:10:00,
2013-02-13 12:15:00,36.5,25.1,29.19,North,0,0.0,0.0,63,0.00,,,0.00,WUHU216HW,2013-02-13 17:15:00,
2013-02-13 12:20:00,36.4,24.6,29.19,North,0,0.0,0.0,62,0.00,,,0.00,WUHU216HW,2013-02-13 17:20:00,
2013-02-13 12:25:00,36.5,25.1,29.19,North,0,0.0,0.0,63,0.00,,,0.00,WUHU216HW,2013-02-13 17:25:00,
2013-02-13 12:30:00,36.7,25.3,29.19,North,0,0.0,0.0,63,0.00,,,0.00,WUHU216HW,2013-02-13 17:30:00,
2013-02-13 12:36:00,37.8,26.3,29.19,North,0,0.0,0.0,63,0.00,,,0.00,WUHU216HW,2013-02-13 17:36:00,
2013-02-13 12:41:00,38.2,26.7,29.19,North,0,0.0,0.0,63,0.00,,,0.00,WUHU216HW,2013-02-13 17:41:00,
2013-02-13 12:46:00,38.5,26.9,29.18,North,0,0.0,0.0,63,0.00,,,0.00,WUHU216HW,2013-02-13 17:46:00,
2013-02-13 12:51:00,39.2,27.6,29.18,North,0,0.0,0.0,63,0.00,,,0.00,WUHU216HW,2013-02-13 17:51:00,
2013-02-13 12:56:00,39.8,28.2,29.18,North,0,0.0,0.0,63,0.00,,,0.00,WUHU216HW,2013-02-13 17:56:00,
2013-02-13 13:01:00,39.4,27.8,29.18,North,0,0.0,0.0,63,0.00,,,0.00,WUHU216HW,2013-02-13 18:01:00,
2013-02-13 13:06:00,38.7,27.1,29.17,North,0,0.0,0.0,63,0.00,,,0.00,WUHU216HW,2013-02-13 18:06:00,
2013-02-13 13:11:00,38.5,26.9,29.17,North,0,0.0,0.0,63,0.00,,,0.00,WUHU216HW,2013-02-13 18:11:00,
2013-02-13 13:16:00,39.4,27.8,29.17,North,0,0.0,0.0,63,0.00,,,0.00,WUHU216HW,2013-02-13 18:16:00,
2013-02-13 13:21:00,39.6,28.0,29.17,North,0,0.0,0.0,63,0.00,,,0.00,WUHU216HW,2013-02-13 18:21:00,
2013-02-13 13:27:00,39.1,27.1,29.16,North,0,0.0,0.0,62,0.00,,,0.00,WUHU216HW,2013-02-13 18:27:00,
2013-02-13 13:32:00,39.4,27.8,29.16,North,0,0.0,0.0,63,0.00,,,0.00,WUHU216HW,2013-02-13 18:32:00,
2013-02-13 13:37:00,40.1,28.5,29.16,North,0,0.0,0.0,63,0.00,,,0.00,WUHU216HW,2013-02-13 18:37:00,
2013-02-13 13:42:00,40.9,28.4,29.16,North,0,0.0,0.0,61,0.00,,,0.00,WUHU216HW,2013-02-13 18:42:00,
2013-02-13 13:47:00,40.9,27.2,29.16,North,0,0.0,0.0,58,0.00,,,0.00,WUHU216HW,2013-02-13 18:47:00,
2013-02-13 13:52:00,40.9,27.6,29.16,North,0,0.0,0.0,59,0.00,,,0.00,WUHU216HW,2013-02-13 18:52:00,
2013-02-13 13:57:00,41.6,28.7,29.16,North,0,0.0,0.0,60,0.00,,,0.00,WUHU216HW,2013-02-13 18:57:00,
2013-02-13 14:02:00,43.4,27.8,29.16,North,0,0.0,0.0,54,0.00,,,0.00,WUHU216HW,2013-02-13 19:02:00,
2013-02-13 14:07:00,44.5,29.7,29.15,North,0,0.0,0.0,56,0.00,,,0.00,WUHU216HW,2013-02-13 19:07:00,
2013-02-13 14:12:00,44.8,29.2,29.15,North,0,0.0,0.0,54,0.00,,,0.00,WUHU216HW,2013-02-13 19:12:00,
2013-02-13 14:18:00,45.9,28.4,29.15,North,0,0.0,0.0,50,0.00,,,0.00,WUHU216HW,2013-02-13 19:18:00,
2013-02-13 14:23:00,45.4,27.8,29.15,North,0,0.0,0.0,50,0.00,,,0.00,WUHU216HW,2013-02-13 19:23:00,
2013-02-13 14:28:00,45.2,28.1,29.15,North,0,0.0,0.0,51,0.00,,,0.00,WUHU216HW,2013-02-13 19:28:00,
2013-02-13 14:33:00,46.3,29.5,29.15,North,0,0.0,0.0,52,0.00,,,0.00,WUHU216HW,2013-02-13 19:33:00,
2013-02-13 14:38:00,47.9,31.1,29.15,North,0,0.0,0.0,52,0.00,,,0.00,WUHU216HW,2013-02-13 19:38:00,
2013-02-13 14:43:00,49.0,29.5,29.14,North,0,0.0,0.0,47,0.00,,,0.00,WUHU216HW,2013-02-13 19:43:00,
2013-02-13 14:48:00,49.0,30.1,29.14,North,0,0.0,0.0,48,0.00,,,0.00,WUHU216HW,2013-02-13 19:48:00,
2013-02-13 14:53:00,50.4,32.0,29.14,North,0,0.0,0.0,49,0.00,,,0.00,WUHU216HW,2013-02-13 19:53:00,
2013-02-13 14:58:00,49.3,29.4,29.14,North,0,0.0,0.0,46,0.00,,,0.00,WUHU216HW,2013-02-13 19:58:00,
2013-02-13 15:03:00,47.5,27.6,29.14,North,0,0.0,0.0,46,0.00,,,0.00,WUHU216HW,2013-02-13 20:03:00,
2013-02-13 15:08:00,48.1,28.1,29.14,North,0,0.0,0.0,46,0.00,,,0.00,WUHU216HW,2013-02-13 20:08:00,
2013-02-13 15:13:00,49.5,30.1,29.13,North,0,0.0,0.0,47,0.00,,,0.00,WUHU216HW,2013-02-13 20:13:00,
2013-02-13 15:19:00,49.3,28.7,29.14,North,0,0.0,0.0,45,0.00,,,0.00,WUHU216HW,2013-02-13 20:19:00,
2013-02-13 15:24:00,50.4,29.8,29.14,North,0,0.0,0.0,45,0.00,,,0.00,WUHU216HW,2013-02-13 20:24:00,
2013-02-13 15:29:00,51.5,28.5,29.13,North,0,0.0,0.0,41,0.00,,,0.00,WUHU216HW,2013-02-13 20:29:00,
2013-02-13 15:34:00,50.9,30.2,29.13,North,0,0.0,0.0,45,0.00,,,0.00,WUHU216HW,2013-02-13 20:34:00,
2013-02-13 15:39:00,49.9,28.2,29.14,North,0,0.0,0.0,43,0.00,,,0.00,WUHU216HW,2013-02-13 20:39:00,
2013-02-13 15:44:00,49.9,28.2,29.13,North,0,0.0,0.0,43,0.00,,,0.00,WUHU216HW,2013-02-13 20:44:00,
2013-02-13 15:49:00,50.6,29.3,29.13,North,0,0.0,0.0,44,0.00,,,0.00,WUHU216HW,2013-02-13 20:49:00,
2013-02-13 15:54:00,51.5,29.6,29.13,North,0,0.0,0.0,43,0.00,,,0.00,WUHU216HW,2013-02-13 20:54:00,
2013-02-13 16:00:00,51.3,28.9,29.13,North,0,0.0,0.0,42,0.00,,,0.00,WUHU216HW,2013-02-13 21:00:00,
2013-02-13 16:05:00,50.6,27.7,29.13,North,0,0.0,0.0,41,0.00,,,0.00,WUHU216HW,2013-02-13 21:05:00,
2013-02-13 16:10:00,50.8,29.0,29.13,North,0,0.0,0.0,43,0.00,,,0.00,WUHU216HW,2013-02-13 21:10:00,
2013-02-13 16:15:00,50.2,27.9,29.14,North,0,0.0,0.0,42,0.00,,,0.00,WUHU216HW,2013-02-13 21:15:00,
2013-02-13 16:20:00,49.7,28.0,29.14,North,0,0.0,0.0,43,0.00,,,0.00,WUHU216HW,2013-02-13 21:20:00,
2013-02-13 16:25:00,50.0,28.4,29.14,North,0,0.0,0.0,43,0.00,,,0.00,WUHU216HW,2013-02-13 21:25:00,
2013-02-13 16:30:00,50.0,28.4,29.14,North,0,0.0,0.0,43,0.00,,,0.00,WUHU216HW,2013-02-13 21:30:00,
2013-02-13 16:32:00,49.9,27.6,29.14,North,0,0.0,0.0,42,0.00,,,0.00,WUHU216HW,2013-02-13 21:32:00,
2013-02-13 16:35:00,49.9,27.6,29.14,North,0,0.0,0.0,42,0.00,,,0.00,WUHU216HW,2013-02-13 21:35:00,
2013-02-13 16:40:00,49.9,27.6,29.14,North,0,0.0,0.0,42,0.00,,,0.00,WUHU216HW,2013-02-13 21:40:00,
2013-02-13 18:01:00,43.9,27.5,29.15,North,0,0.0,0.0,52,0.00,,,0.00,WUHU216HW,2013-02-13 23:01:00,
2013-02-13 18:06:00,43.6,27.6,29.15,North,0,0.0,0.0,53,0.00,,,0.00,WUHU216HW,2013-02-13 23:06:00,
2013-02-13 18:11:00,42.8,26.8,29.16,North,0,0.0,0.0,53,0.00,,,0.00,WUHU216HW,2013-02-13 23:11:00,
2013-02-13 18:16:00,42.3,26.7,29.16,North,0,0.0,0.0,54,0.00,,,0.00,WUHU216HW,2013-02-13 23:16:00,
2013-02-13 18:21:00,41.8,26.3,29.16,North,0,0.0,0.0,54,0.00,,,0.00,WUHU216HW,2013-02-13 23:21:00,
2013-02-13 18:26:00,41.2,26.2,29.16,North,0,0.0,0.0,55,0.00,,,0.00,WUHU216HW,2013-02-13 23:26:00,
2013-02-13 18:31:00,40.7,25.7,29.16,North,0,0.0,0.0,55,0.00,,,0.00,WUHU216HW,2013-02-13 23:31:00,
2013-02-13 18:36:00,40.1,25.6,29.16,North,0,0.0,0.0,56,0.00,,,0.00,WUHU216HW,2013-02-13 23:36:00,
2013-02-13 18:42:00,39.6,25.1,29.16,North,0,0.0,0.0,56,0.00,,,0.00,WUHU216HW,2013-02-13 23:42:00,
2013-02-13 18:47:00,39.1,25.0,29.16,North,0,0.0,0.0,57,0.00,,,0.00,WUHU216HW,2013-02-13 23:47:00,
2013-02-13 18:52:00,38.5,24.9,29.16,North,0,0.0,0.0,58,0.00,,,0.00,WUHU216HW,2013-02-13 23:52:00,
2013-02-13 18:57:00,38.0,24.5,29.16,North,0,0.0,0.0,58,0.00,,,0.00,WUHU216HW,2013-02-13 23:57:00,
2013-02-13 19:02:00,37.8,24.8,29.17,North,0,0.0,0.0,59,0.00,,,0.00,WUHU216HW,2013-02-14 00:02:00,
2013-02-13 19:07:00,37.4,24.8,29.17,North,0,0.0,0.0,60,0.00,,,0.00,WUHU216HW,2013-02-14 00:07:00,
2013-02-13 19:12:00,37.3,24.7,29.17,North,0,0.0,0.0,60,0.00,,,0.00,WUHU216HW,2013-02-14 00:12:00,
2013-02-13 19:17:00,37.4,25.2,29.17,North,0,0.0,0.0,61,0.00,,,0.00,WUHU216HW,2013-02-14 00:17:00,
2013-02-13 19:22:00,37.6,25.4,29.17,North,0,0.0,0.0,61,0.00,,,0.00,WUHU216HW,2013-02-14 00:22:00,
2013-02-13 19:27:00,37.8,25.9,29.17,North,0,0.0,0.0,62,0.00,,,0.00,WUHU216HW,2013-02-14 00:27:00,
2013-02-13 19:32:00,37.6,25.4,29.18,North,0,0.0,0.0,61,0.00,,,0.00,WUHU216HW,2013-02-14 00:32:00,
2013-02-13 19:37:00,37.4,25.2,29.18,North,0,0.0,0.0,61,0.00,,,0.00,WUHU216HW,2013-02-14 00:37:00,
2013-02-13 19:43:00,37.3,25.0,29.18,North,0,0.0,0.0,61,0.00,,,0.00,WUHU216HW,2013-02-14 00:43:00,
2013-02-13 19:48:00,37.3,25.5,29.18,North,0,0.0,0.0,62,0.00,,,0.00,WUHU216HW,2013-02-14 00:48:00,
2013-02-13 19:53:00,37.3,25.5,29.18,North,0,0.0,0.0,62,0.00,,,0.00,WUHU216HW,2013-02-14 00:53:00,
2013-02-13 19:58:00,37.1,25.3,29.18,North,0,0.0,0.0,62,0.00,,,0.00,WUHU216HW,2013-02-14 00:58:00,
2013-02-13 20:03:00,37.4,25.6,29.18,North,0,0.0,0.0,62,0.00,,,0.00,WUHU216HW,2013-02-14 01:03:00,
2013-02-13 20:08:00,37.4,25.6,29.18,North,0,0.0,0.0,62,0.00,,,0.00,WUHU216HW,2013-02-14 01:08:00,
2013-02-13 20:13:00,37.4,25.6,29.18,North,0,0.0,0.0,62,0.00,,,0.00,WUHU216HW,2013-02-14 01:13:00,
2013-02-13 20:18:00,37.6,25.7,29.17,North,0,0.0,0.0,62,0.00,,,0.00,WUHU216HW,2013-02-14 01:18:00,
2013-02-13 20:23:00,37.6,26.1,29.18,North,0,0.0,0.0,63,0.00,,,0.00,WUHU216HW,2013-02-14 01:23:00,
2013-02-13 20:28:00,37.6,26.1,29.18,North,0,0.0,0.0,63,0.00,,,0.00,WUHU216HW,2013-02-14 01:28:00,
2013-02-13 20:33:00,37.6,26.1,29.18,North,0,0.0,0.0,63,0.00,,,0.00,WUHU216HW,2013-02-14 01:33:00,
2013-02-13 20:39:00,37.6,26.1,29.18,North,0,0.0,0.0,63,0.00,,,0.00,WUHU216HW,2013-02-14 01:39:00,
2013-02-13 20:44:00,37.6,25.7,29.18,North,0,0.0,0.0,62,0.00,,,0.00,WUHU216HW,2013-02-14 01:44:00,
2013-02-13 20:49:00,37.4,26.0,29.18,North,0,0.0,0.0,63,0.00,,,0.00,WUHU216HW,2013-02-14 01:49:00,
2013-02-13 20:54:00,37.1,25.7,29.18,North,0,0.0,0.0,63,0.00,,,0.00,WUHU216HW,2013-02-14 01:54:00,
2013-02-13 20:59:00,37.3,26.2,29.18,North,0,0.0,0.0,64,0.00,,,0.00,WUHU216HW,2013-02-14 01:59:00,
2013-02-13 21:04:00,37.4,26.0,29.18,North,0,0.0,0.0,63,0.00,,,0.00,WUHU216HW,2013-02-14 02:04:00,
2013-02-13 21:09:00,37.8,26.3,29.18,North,0,0.0,0.0,63,0.00,,,0.00,WUHU216HW,2013-02-14 02:09:00,
2013-02-13 21:14:00,37.8,26.3,29.18,North,0,0.0,0.0,63,0.00,,,0.00,WUHU216HW,2013-02-14 02:14:00,
2013-02-13 21:19:00,38.2,26.7,29.19,North,0,0.0,0.0,63,0.00,,,0.00,WUHU216HW,2013-02-14 02:19:00,
2013-02-13 21:24:00,38.2,26.7,29.19,North,0,0.0,0.0,63,0.00,,,0.00,WUHU216HW,2013-02-14 02:24:00,
2013-02-13 21:29:00,38.2,26.7,29.19,North,0,0.0,0.0,63,0.00,,,0.00,WUHU216HW,2013-02-14 02:29:00,
2013-02-13 21:35:00,38.2,26.7,29.19,North,0,0.0,0.0,63,0.00,,,0.00,WUHU216HW,2013-02-14 02:35:00,
2013-02-13 21:40:00,38.2,26.7,29.19,North,0,0.0,0.0,63,0.00,,,0.00,WUHU216HW,2013-02-14 02:40:00,
2013-02-13 21:45:00,37.8,26.3,29.19,North,0,0.0,0.0,63,0.00,,,0.00,WUHU216HW,2013-02-14 02:45:00,
2013-02-13 21:50:00,37.8,26.6,29.19,North,0,0.0,0.0,64,0.00,,,0.00,WUHU216HW,2013-02-14 02:50:00,
2013-02-13 21:55:00,37.8,26.6,29.19,North,0,0.0,0.0,64,0.00,,,0.00,WUHU216HW,2013-02-14 02:55:00,
2013-02-13 22:00:00,37.8,26.6,29.19,North,0,0.0,0.0,64,0.00,,,0.00,WUHU216HW,2013-02-14 03:00:00,
2013-02-13 22:05:00,38.0,26.8,29.19,North,0,0.0,0.0,64,0.00,,,0.00,WUHU216HW,2013-02-14 03:05:00,
2013-02-13 22:10:00,38.0,26.8,29.19,North,0,0.0,0.0,64,0.00,,,0.00,WUHU216HW,2013-02-14 03:10:00,
2013-02-13 22:15:00,37.8,26.6,29.19,North,0,0.0,0.0,64,0.00,,,0.00,WUHU216HW,2013-02-14 03:15:00,
2013-02-13 23:00:00,37.1,26.0,29.19,North,0,0.0,0.0,64,0.00,,,0.00,WUHU216HW,2013-02-14 04:00:00,
2013-02-13 23:01:00,37.1,26.0,29.19,North,0,0.0,0.0,64,0.00,,,0.00,WUHU216HW,2013-02-14 04:01:00,
2013-02-13 23:06:00,37.1,26.0,29.19,North,0,0.0,0.0,64,0.00,,,0.00,WUHU216HW,2013-02-14 04:06:00,